< Typhoon 195923 1960 Season Typhoon 196002 >
Typhoon 196001 (KAREN)
General InformationTrack Information on Google Maps || Disaster Info.ResourceGoogle EarthGE AnimationAtom FeedGeoJSON
Detalied Best Track (Time Zone = UTC)
Year Month Day Hour Lat. Long. Pressure (hPa) Wind (kt) Class Image Chart
1960 4 21 06 9.0 126.0 1004 0 2 -- Chart
1960 4 21 12 9.0 125.0 1004 0 2 -- Chart
1960 4 21 18 9.2 124.3 1004 0 2 -- Chart
1960 4 22 00 9.6 123.6 1004 0 2 -- Chart
1960 4 22 06 9.9 123.2 1004 0 2 -- Chart
1960 4 22 12 10.8 122.7 1004 0 2 -- Chart
1960 4 22 18 11.5 122.4 1004 0 2 -- Chart
1960 4 23 00 12.1 122.3 1004 0 2 -- Chart
1960 4 23 06 12.7 122.2 1004 0 2 -- Chart
1960 4 23 12 13.1 121.8 1004 0 2 -- Chart
1960 4 23 18 13.7 121.4 1000 0 2 -- Chart
1960 4 24 00 14.0 119.3 1000 0 9 -- Chart
1960 4 24 06 14.6 118.4 998 0 9 -- Chart
1960 4 24 12 15.4 118.4 998 0 9 -- Chart
1960 4 24 18 16.1 118.6 998 0 9 -- Chart
1960 4 25 00 16.9 118.8 995 0 9 -- Chart
1960 4 25 06 17.8 119.2 990 0 9 -- Chart
1960 4 25 12 18.9 120.0 995 0 9 -- Chart
1960 4 25 18 20.2 120.5 995 0 9 -- Chart
1960 4 26 00 21.5 121.0 1000 0 9 -- Chart
1960 4 26 06 22.0 121.0 1004 0 2 -- Chart
1960 4 26 12 22.5 122.9 1004 0 2 -- Chart
1960 4 26 18 22.9 125.1 1004 0 2 -- Chart
1960 4 27 00 23.0 128.0 1002 0 2 -- Chart
Japan Meteorological Agency Best Track Data | Correction Date : 1989-06-01
< Typhoon 195923 1960 Season Typhoon 196002 >

Help